Time;durP1;ratioP1;P1;durP2;ratioP2;P2;SDS_P1;SDS_P2;PMS_P1;PMS_P2;Temp;Humidity;BMP_temperature;BMP_pressure;BME280_temperature;BME280_humidity;BME280_pressure;Samples;Min_cycle;Max_cycle;Signal;HPM_P1;HPM_P2
2022/01/19 00:00:12;;;;;;;24.25;10.68;;;;;;;2.06;100.00;101781.25;5047129;28;20109;-65
2022/01/19 00:02:38;;;;;;;23.25;11.65;;;;;;;2.06;100.00;101782.13;5040558;28;20017;-64
2022/01/19 00:05:05;;;;;;;23.33;11.27;;;;;;;2.10;100.00;101778.75;5040140;28;20024;-64
2022/01/19 00:07:31;;;;;;;26.58;11.23;;;;;;;2.02;100.00;101769.75;5046400;28;20079;-64
2022/01/19 00:10:02;;;;;;;17.30;10.73;;;;;;;1.94;100.00;101763.41;5042856;28;20028;-64
2022/01/19 00:12:27;;;;;;;22.27;11.02;;;;;;;1.89;100.00;101746.63;5041252;28;20021;-64
2022/01/19 00:14:53;;;;;;;20.95;10.35;;;;;;;1.69;100.00;101737.28;5044165;28;20043;-64
2022/01/19 00:17:18;;;;;;;17.98;10.73;;;;;;;1.57;100.00;101725.50;5039463;28;20118;-64
2022/01/19 00:19:44;;;;;;;19.85;9.75;;;;;;;1.54;100.00;101709.69;5036753;28;20079;-64
2022/01/19 00:22:09;;;;;;;19.98;10.98;;;;;;;1.49;100.00;101717.41;5034727;28;20101;-64
2022/01/19 00:24:34;;;;;;;19.95;11.02;;;;;;;1.45;100.00;101710.28;5030029;28;20049;-64
2022/01/19 00:27:00;;;;;;;19.70;10.65;;;;;;;1.47;100.00;101719.09;5036073;28;20050;-64
2022/01/19 00:29:25;;;;;;;16.90;9.95;;;;;;;1.53;100.00;101721.94;5049720;28;20024;-64
2022/01/19 00:31:51;;;;;;;15.35;9.43;;;;;;;1.54;100.00;101730.66;5047962;28;20485;-64
2022/01/19 00:34:16;;;;;;;18.88;10.48;;;;;;;1.56;100.00;101732.50;5029920;28;20026;-64
2022/01/19 00:36:41;;;;;;;17.73;11.35;;;;;;;1.55;100.00;101728.09;5029962;28;20033;-64
2022/01/19 00:39:07;;;;;;;18.05;11.35;;;;;;;1.51;100.00;101731.47;5029939;28;20385;-64
2022/01/19 00:41:32;;;;;;;21.95;11.23;;;;;;;1.45;100.00;101733.88;5030212;28;20052;-64
2022/01/19 00:43:58;;;;;;;17.35;9.98;;;;;;;1.40;100.00;101735.47;5029931;28;20033;-64
2022/01/19 00:46:23;;;;;;;21.77;10.65;;;;;;;1.36;100.00;101730.97;5030470;28;20040;-64
2022/01/19 00:48:48;;;;;;;16.67;10.38;;;;;;;1.37;100.00;101726.66;5030445;28;20026;-64
2022/01/19 00:51:14;;;;;;;14.95;10.23;;;;;;;1.34;100.00;101714.31;5029859;28;20030;-64
2022/01/19 00:53:39;;;;;;;15.68;10.45;;;;;;;1.29;100.00;101703.69;5029719;28;20030;-64
2022/01/19 00:56:05;;;;;;;14.85;10.02;;;;;;;1.26;100.00;101697.47;5028634;28;20064;-64
2022/01/19 00:58:30;;;;;;;16.17;9.18;;;;;;;1.15;100.00;101662.19;5037379;28;20031;-64
2022/01/19 01:00:56;;;;;;;18.25;10.30;;;;;;;0.85;100.00;101640.25;5049399;28;20025;-64
2022/01/19 01:03:21;;;;;;;19.05;10.85;;;;;;;0.88;100.00;101629.84;5037462;28;20389;-64
2022/01/19 01:05:46;;;;;;;19.15;11.13;;;;;;;0.94;100.00;101624.84;5029938;28;20021;-64
2022/01/19 01:08:12;;;;;;;15.90;9.93;;;;;;;1.11;100.00;101618.38;5031914;28;20040;-64
2022/01/19 01:10:42;;;;;;;17.50;9.77;;;;;;;1.36;100.00;101620.91;5030219;28;20048;-64
2022/01/19 01:16:05;;;;;;;20.33;11.50;;;;;;;1.70;100.00;101602.66;5049976;28;20029;-64
2022/01/19 01:18:34;;;;;;;17.75;10.57;;;;;;;1.76;100.00;101608.09;5035497;28;20116;-64
2022/01/19 01:21:00;;;;;;;20.42;11.63;;;;;;;1.75;100.00;101594.91;5045988;28;20025;-64
2022/01/19 01:23:28;;;;;;;18.17;9.88;;;;;;;1.67;100.00;101592.09;5049267;28;20082;-64
2022/01/19 01:25:55;;;;;;;18.90;11.13;;;;;;;1.67;100.00;101581.59;5049921;28;20033;-64
2022/01/19 01:28:21;;;;;;;19.35;10.63;;;;;;;1.64;100.00;101565.78;5049375;28;20064;-64
2022/01/19 01:30:47;;;;;;;21.98;10.90;;;;;;;1.61;100.00;101557.84;5048402;28;20485;-64
2022/01/19 01:33:13;;;;;;;15.90;11.73;;;;;;;1.60;100.00;101558.66;5040030;28;20025;-64
2022/01/19 01:35:39;;;;;;;20.40;10.77;;;;;;;1.56;100.00;101577.81;5030021;28;20025;-64
2022/01/19 01:38:06;;;;;;;19.35;11.10;;;;;;;1.49;100.00;101580.19;5029451;28;20033;-64
2022/01/19 01:40:34;;;;;;;17.67;10.15;;;;;;;1.50;100.00;101601.19;5036394;28;20048;-64
2022/01/19 01:43:01;;;;;;;20.98;9.63;;;;;;;1.43;100.00;101606.25;5028459;28;20017;-64
2022/01/19 01:45:30;;;;;;;21.55;9.35;;;;;;;1.39;100.00;101620.97;5030946;28;20030;-64
2022/01/19 01:48:08;;;;;;;14.65;9.18;;;;;;;1.31;100.00;101614.63;5035717;28;20040;-64
2022/01/19 01:53:26;;;;;;;16.08;9.40;;;;;;;1.23;100.00;101596.06;5033305;28;20036;-64
2022/01/19 01:55:55;;;;;;;17.35;10.90;;;;;;;1.24;100.00;101595.22;5033202;28;20032;-64
2022/01/19 01:58:21;;;;;;;16.92;11.02;;;;;;;1.25;100.00;101590.88;5039108;28;20061;-64
2022/01/19 02:00:46;;;;;;;20.50;10.23;;;;;;;1.21;100.00;101584.66;5052613;28;20087;-64
2022/01/19 02:03:12;;;;;;;16.42;10.10;;;;;;;1.09;100.00;101576.41;5053249;28;20025;-64
2022/01/19 02:05:50;;;;;;;17.38;10.70;;;;;;;1.12;100.00;101586.09;5053523;28;20029;-64
2022/01/19 02:08:20;;;;;;;25.30;16.33;;;;;;;1.10;100.00;101580.78;5053013;28;20025;-64
2022/01/19 02:11:29;;;;;;;22.60;13.38;;;;;;;1.11;100.00;101574.72;5052597;28;20032;-64
2022/01/19 02:16:50;;;;;;;19.15;10.52;;;;;;;1.11;100.00;101550.25;5053092;28;20059;-64
2022/01/19 02:22:02;;;;;;;16.77;10.75;;;;;;;1.14;100.00;101537.22;5033087;28;20032;-64
2022/01/19 02:24:42;;;;;;;16.95;10.60;;;;;;;1.07;100.00;101511.72;5032509;28;20057;-64
2022/01/19 02:28:56;;;;;;;16.17;10.32;;;;;;;1.12;100.00;101531.09;5050428;28;20021;-64
2022/01/19 02:41:00;;;;;;;20.90;10.68;;;;;;;1.25;100.00;101507.00;5032233;28;20467;-64
2022/01/19 02:43:28;;;;;;;17.90;10.32;;;;;;;1.24;100.00;101513.06;5032259;28;20017;-64
2022/01/19 02:51:22;;;;;;;19.35;9.75;;;;;;;1.15;100.00;101491.88;5032326;28;20504;-65
2022/01/19 02:53:47;;;;;;;15.88;10.57;;;;;;;1.13;100.00;101483.06;5031734;28;20021;-64
2022/01/19 02:56:22;;;;;;;15.13;9.00;;;;;;;1.16;100.00;101480.53;5031890;28;20022;-64
2022/01/19 02:59:00;;;;;;;16.73;10.48;;;;;;;1.20;100.00;101480.66;5040378;28;20028;-64
2022/01/19 03:09:23;;;;;;;13.63;8.80;;;;;;;1.10;100.00;101469.88;5031696;28;20033;-64
2022/01/19 03:11:49;;;;;;;17.38;10.07;;;;;;;1.11;100.00;101483.03;5034231;28;20465;-64
2022/01/19 03:14:15;;;;;;;13.73;8.63;;;;;;;1.10;100.00;101462.03;5031559;28;20022;-64
2022/01/19 03:16:40;;;;;;;13.18;8.82;;;;;;;1.08;100.00;101455.84;5030684;28;20057;-64
2022/01/19 03:19:08;;;;;;;19.38;10.25;;;;;;;0.97;100.00;101446.81;5045753;28;20401;-64
2022/01/19 03:21:34;;;;;;;17.23;8.88;;;;;;;1.03;100.00;101453.09;5034001;28;20033;-64
2022/01/19 03:24:00;;;;;;;14.82;8.45;;;;;;;1.05;100.00;101461.00;5031134;28;20040;-64
2022/01/19 03:26:25;;;;;;;27.13;9.70;;;;;;;1.02;100.00;101466.16;5031813;28;20037;-64
2022/01/19 03:28:51;;;;;;;15.60;8.27;;;;;;;1.00;100.00;101467.84;5041434;28;20025;-65
2022/01/19 03:31:16;;;;;;;16.67;9.30;;;;;;;0.93;100.00;101460.66;5051344;28;20051;-64
2022/01/19 03:33:41;;;;;;;17.25;10.02;;;;;;;0.86;100.00;101438.63;5034221;28;20501;-64
2022/01/19 03:36:07;;;;;;;18.10;10.52;;;;;;;1.07;100.00;101454.94;5033360;28;20032;-64
2022/01/19 03:38:32;;;;;;;14.73;8.98;;;;;;;1.06;100.00;101455.81;5033896;28;20033;-64
2022/01/19 03:40:58;;;;;;;16.63;9.32;;;;;;;1.07;100.00;101449.72;5049605;28;20025;-64
2022/01/19 03:43:23;;;;;;;20.55;10.95;;;;;;;0.98;100.00;101445.94;5051292;28;20078;-64
2022/01/19 03:45:52;;;;;;;18.85;9.57;;;;;;;1.04;100.00;101453.97;5051419;28;20028;-64
2022/01/19 03:48:44;;;;;;;18.38;11.73;;;;;;;0.97;100.00;101446.81;5044561;28;20363;-64
2022/01/19 03:51:05;;;;;;;22.70;12.35;;;;;;;0.95;100.00;101438.00;5050287;28;20061;-64
2022/01/19 03:53:31;;;;;;;20.35;11.43;;;;;;;0.99;100.00;101437.22;5050787;28;20052;-64
2022/01/19 03:55:56;;;;;;;20.40;11.57;;;;;;;0.94;100.00;101431.00;5048210;28;20075;-64
2022/01/19 03:58:22;;;;;;;18.45;11.80;;;;;;;0.83;100.00;101411.47;5042282;28;20025;-64
2022/01/19 04:00:53;;;;;;;19.83;10.80;;;;;;;0.88;100.00;101433.44;5050527;28;20041;-64
2022/01/19 04:03:22;;;;;;;20.77;11.98;;;;;;;0.82;100.00;101435.88;5050426;28;20075;-64
2022/01/19 04:05:59;;;;;;;16.65;10.40;;;;;;;0.75;100.00;101433.94;5050759;28;20035;-64
2022/01/19 04:08:25;;;;;;;21.73;11.40;;;;;;;0.71;100.00;101432.09;5049731;28;20067;-64
2022/01/19 04:10:51;;;;;;;22.17;12.88;;;;;;;0.75;100.00;101426.06;5050416;28;20025;-64
2022/01/19 04:15:54;;;;;;;24.55;13.25;;;;;;;0.79;100.00;101412.25;5050415;28;20111;-64
2022/01/19 04:18:20;;;;;;;25.55;12.63;;;;;;;0.79;100.00;101414.84;5048353;28;20034;-64
2022/01/19 04:20:50;;;;;;;33.75;19.70;;;;;;;0.48;100.00;101413.06;5030542;28;20382;-64
2022/01/19 04:23:16;;;;;;;35.63;17.23;;;;;;;0.31;100.00;101398.59;5030700;28;20100;-64
2022/01/19 04:25:43;;;;;;;31.00;18.33;;;;;;;0.60;100.00;101407.28;5030526;28;20029;-64
2022/01/19 04:28:08;;;;;;;32.50;17.27;;;;;;;0.62;100.00;101401.28;5034505;28;20025;-65
2022/01/19 04:30:35;;;;;;;24.13;14.45;;;;;;;0.33;100.00;101402.13;5049691;28;20035;-65
2022/01/19 04:33:07;;;;;;;19.27;12.23;;;;;;;0.57;100.00;101407.22;5038362;28;20036;-65
2022/01/19 04:35:44;;;;;;;21.45;10.70;;;;;;;0.52;100.00;101400.94;5030653;28;20498;-65
2022/01/19 04:49:11;;;;;;;17.60;9.70;;;;;;;-0.01;100.00;101405.44;5007552;28;20037;-64
2022/01/19 05:02:58;;;;;;;16.88;9.35;;;;;;;0.28;100.00;101402.84;5049233;28;20017;-64
2022/01/19 05:07:57;;;;;;;18.15;10.80;;;;;;;0.53;100.00;101407.97;5049482;28;20029;-64
2022/01/19 05:15:49;;;;;;;26.77;15.20;;;;;;;0.53;100.00;101395.75;5045549;28;20024;-65
2022/01/19 05:18:14;;;;;;;29.33;15.85;;;;;;;0.74;100.00;101400.75;5035544;28;20025;-65
2022/01/19 05:20:40;;;;;;;32.97;17.85;;;;;;;0.77;100.00;101395.59;5049485;28;20428;-65
2022/01/19 05:23:05;;;;;;;29.40;16.42;;;;;;;0.88;100.00;101396.78;5049824;28;20071;-64
2022/01/19 05:25:33;;;;;;;27.25;15.27;;;;;;;0.78;100.00;101394.72;5049497;28;20032;-64
2022/01/19 05:27:59;;;;;;;26.33;15.35;;;;;;;0.82;100.00;101401.84;5046816;28;20101;-64
2022/01/19 05:30:24;;;;;;;21.98;13.90;;;;;;;0.82;100.00;101399.22;5049241;28;20100;-64
2022/01/19 05:32:50;;;;;;;25.48;13.77;;;;;;;0.77;100.00;101387.72;5049417;28;20116;-64
2022/01/19 05:35:16;;;;;;;31.25;16.60;;;;;;;0.79;100.00;101392.16;5049175;28;20025;-64
2022/01/19 05:37:41;;;;;;;30.30;16.52;;;;;;;0.79;100.00;101378.19;5049871;28;20029;-64
2022/01/19 05:40:09;;;;;;;33.20;17.63;;;;;;;0.93;100.00;101380.34;5048410;28;20158;-64
2022/01/19 05:42:35;;;;;;;48.05;23.30;;;;;;;0.89;100.00;101369.75;5048411;28;20020;-64
2022/01/19 05:45:01;;;;;;;51.83;25.60;;;;;;;0.77;100.00;101375.53;5028894;28;20446;-65
2022/01/19 05:47:27;;;;;;;46.38;22.77;;;;;;;0.76;100.00;101372.84;5029964;28;20025;-65
2022/01/19 05:49:53;;;;;;;35.58;21.65;;;;;;;0.70;100.00;101367.44;5028716;28;20040;-65
2022/01/19 05:52:19;;;;;;;39.40;20.90;;;;;;;0.55;100.00;101351.31;5031909;28;20401;-65
2022/01/19 05:54:45;;;;;;;33.75;19.38;;;;;;;0.62;100.00;101363.72;5032309;28;20026;-65
2022/01/19 05:57:11;;;;;;;32.70;17.35;;;;;;;0.62;100.00;101368.97;5047367;28;20033;-64
2022/01/19 05:59:36;;;;;;;27.17;15.10;;;;;;;0.52;100.00;101372.16;5048421;28;20389;-64
2022/01/19 06:02:02;;;;;;;24.55;12.32;;;;;;;0.49;100.00;101369.47;5049376;28;20036;-64
2022/01/19 06:04:27;;;;;;;15.75;9.68;;;;;;;0.49;100.00;101382.53;5048527;28;20017;-64
2022/01/19 06:06:55;;;;;;;18.88;10.30;;;;;;;0.45;100.00;101383.28;5048861;28;20041;-64
2022/01/19 06:09:48;;;;;;;43.47;12.93;;;;;;;0.37;100.00;101379.56;5049338;28;20373;-64
2022/01/19 06:12:14;;;;;;;22.90;10.32;;;;;;;0.42;100.00;101386.72;5048995;28;20025;-65
2022/01/19 06:14:41;;;;;;;15.93;9.52;;;;;;;0.41;100.00;101378.81;5035491;28;20022;-63
2022/01/19 06:17:09;;;;;;;18.27;10.23;;;;;;;0.44;100.00;101376.28;5029942;28;20060;-64
2022/01/19 06:19:35;;;;;;;22.42;12.13;;;;;;;0.42;100.00;101383.19;5048999;28;20024;-64
2022/01/19 06:22:01;;;;;;;21.30;11.30;;;;;;;0.34;100.00;101382.97;5047728;28;20360;-64
2022/01/19 06:24:27;;;;;;;19.73;12.00;;;;;;;0.24;100.00;101374.81;5049108;28;20025;-63
2022/01/19 06:26:53;;;;;;;21.90;12.65;;;;;;;0.30;100.00;101375.88;5048791;28;20025;-64
2022/01/19 06:29:18;;;;;;;20.58;11.65;;;;;;;0.28;100.00;101376.69;5048679;28;20381;-64
2022/01/19 06:31:44;;;;;;;22.88;13.55;;;;;;;0.26;100.00;101378.34;5048455;28;20024;-64
2022/01/19 06:34:09;;;;;;;22.33;14.15;;;;;;;0.23;100.00;101375.66;5032741;28;20029;-64
2022/01/19 06:36:35;;;;;;;26.98;14.00;;;;;;;0.23;100.00;101373.03;5032658;28;20025;-64
2022/01/19 06:39:00;;;;;;;21.77;14.60;;;;;;;0.23;100.00;101366.06;5032365;28;20099;-64
2022/01/19 06:41:26;;;;;;;40.30;19.15;;;;;;;0.25;100.00;101367.00;5032862;28;20397;-64
2022/01/19 06:43:51;;;;;;;38.88;18.67;;;;;;;0.25;100.00;101355.66;5032644;28;20061;-64
2022/01/19 06:46:17;;;;;;;44.75;19.80;;;;;;;0.29;100.00;101362.75;5032309;28;20461;-64
2022/01/19 06:48:42;;;;;;;34.90;17.85;;;;;;;0.26;100.00;101353.09;5032882;28;20429;-64
2022/01/19 06:51:08;;;;;;;31.00;14.77;;;;;;;0.24;100.00;101351.25;5030820;28;20033;-64
2022/01/19 06:53:34;;;;;;;30.20;14.68;;;;;;;0.08;100.00;101323.78;5046425;28;20024;-64
2022/01/19 06:55:59;;;;;;;35.20;16.63;;;;;;;0.25;100.00;101351.28;5052696;28;20055;-64
2022/01/19 06:58:25;;;;;;;39.25;19.98;;;;;;;0.25;100.00;101351.28;5052297;28;20025;-64
2022/01/19 07:00:51;;;;;;;43.05;18.85;;;;;;;0.24;100.00;101353.88;5051301;28;20024;-64
2022/01/19 07:03:16;;;;;;;42.75;18.98;;;;;;;0.18;100.00;101346.75;5052262;28;20036;-64
2022/01/19 07:05:42;;;;;;;39.13;20.38;;;;;;;0.13;100.00;101343.09;5051719;28;20104;-64
2022/01/19 07:08:08;;;;;;;36.08;17.88;;;;;;;0.03;100.00;101328.84;5052463;28;20374;-64
2022/01/19 07:10:34;;;;;;;26.63;14.10;;;;;;;0.13;100.00;101339.59;5048786;28;20063;-64
2022/01/19 07:13:03;;;;;;;23.23;14.13;;;;;;;0.08;100.00;101343.78;5033613;28;20050;-65
2022/01/19 07:15:29;;;;;;;26.95;16.35;;;;;;;0.06;100.00;101348.09;5031977;28;20100;-63
2022/01/19 07:17:55;;;;;;;28.25;14.25;;;;;;;-0.03;100.00;101349.59;5038083;28;20403;-63
2022/01/19 07:20:20;;;;;;;27.02;13.68;;;;;;;-0.03;100.00;101359.13;5047519;28;20041;-63
2022/01/19 07:22:47;;;;;;;23.65;12.80;;;;;;;-0.07;100.00;101350.31;5032508;28;20029;-63
2022/01/19 07:25:13;;;;;;;23.45;12.77;;;;;;;-0.05;100.00;101343.41;5031530;28;20033;-63
2022/01/19 07:27:39;;;;;;;20.15;12.88;;;;;;;0.03;100.00;101344.53;5031769;28;20072;-63
2022/01/19 07:30:05;;;;;;;24.83;14.13;;;;;;;0.08;100.00;101343.78;5033255;28;20091;-63
2022/01/19 07:32:34;;;;;;;25.27;13.13;;;;;;;0.12;100.00;101343.03;5028177;28;20022;-63
2022/01/19 07:35:00;;;;;;;28.52;14.68;;;;;;;0.16;100.00;101334.44;5032852;28;20051;-65
2022/01/19 07:37:26;;;;;;;29.98;16.02;;;;;;;0.23;100.00;101347.75;5031684;28;20414;-64
2022/01/19 07:39:52;;;;;;;29.80;14.80;;;;;;;0.25;100.00;101345.19;5030088;28;20026;-63
2022/01/19 07:42:17;;;;;;;27.80;15.93;;;;;;;0.29;100.00;101331.34;5029158;28;20389;-63
2022/01/19 07:44:43;;;;;;;30.58;15.50;;;;;;;0.32;100.00;101337.56;5035504;28;20036;-64
2022/01/19 07:47:10;;;;;;;26.27;16.33;;;;;;;0.33;100.00;101341.94;5046294;28;20033;-64
2022/01/19 07:49:35;;;;;;;27.23;16.65;;;;;;;0.32;100.00;101345.41;5050338;28;20025;-64
2022/01/19 07:52:01;;;;;;;28.35;15.88;;;;;;;0.43;100.00;101343.13;5050485;28;20422;-64
2022/01/19 07:54:26;;;;;;;30.23;17.10;;;;;;;0.63;100.00;101342.81;5044351;28;20501;-64
2022/01/19 07:56:51;;;;;;;26.17;16.00;;;;;;;0.96;100.00;101343.75;5046291;28;20025;-64
2022/01/19 07:59:17;;;;;;;27.85;17.25;;;;;;;1.16;100.00;101333.81;5046599;28;20017;-63
2022/01/19 08:01:43;;;;;;;28.73;16.65;;;;;;;1.57;100.00;101338.34;5048695;28;20029;-64
2022/01/19 08:04:09;;;;;;;35.72;18.50;;;;;;;2.05;100.00;101339.50;5051454;28;20020;-63
2022/01/19 08:06:35;;;;;;;41.83;21.20;;;;;;;2.50;100.00;101335.22;5050387;28;20029;-63
2022/01/19 08:09:00;;;;;;;52.45;24.95;;;;;;;2.80;100.00;101334.09;5039192;28;20172;-63
2022/01/19 08:11:26;;;;;;;39.95;25.15;;;;;;;3.51;100.00;101338.94;5049948;28;20029;-63
2022/01/19 08:13:52;;;;;;;48.15;24.50;;;;;;;4.26;100.00;101333.94;5050622;28;20021;-64
2022/01/19 08:16:18;;;;;;;48.38;26.95;;;;;;;5.28;100.00;101338.69;5049544;28;20041;-64
2022/01/19 08:18:44;;;;;;;44.88;24.83;;;;;;;6.31;100.00;101337.72;5049997;28;20461;-64
2022/01/19 08:21:09;;;;;;;41.45;22.67;;;;;;;7.42;100.00;101326.66;5049638;28;20024;-64
2022/01/19 08:23:34;;;;;;;40.97;20.40;;;;;;;8.58;99.70;101323.00;5050397;28;20017;-64
2022/01/19 08:26:00;;;;;;;35.42;19.15;;;;;;;9.39;86.37;101313.72;5049941;28;20108;-64
2022/01/19 08:28:25;;;;;;;26.25;13.23;;;;;;;10.05;80.36;101305.16;5050294;28;20028;-64
2022/01/19 08:30:51;;;;;;;23.40;12.90;;;;;;;10.98;72.38;101313.81;5049307;28;20057;-64
2022/01/19 08:33:16;;;;;;;19.35;10.50;;;;;;;12.03;64.57;101314.84;5049638;28;20125;-64
2022/01/19 08:35:42;;;;;;;20.77;10.85;;;;;;;12.61;59.00;101311.94;5030387;28;20385;-64
2022/01/19 08:38:08;;;;;;;13.88;8.98;;;;;;;12.53;55.34;101316.56;5030162;28;20033;-64
2022/01/19 08:40:36;;;;;;;14.43;7.90;;;;;;;12.36;52.41;101316.00;5044256;28;20296;-64
2022/01/19 08:43:01;;;;;;;14.15;8.80;;;;;;;11.46;53.29;101324.66;5050142;28;20477;-64
2022/01/19 08:45:27;;;;;;;15.85;8.43;;;;;;;10.51;55.87;101327.72;5049598;28;20032;-64
2022/01/19 08:47:53;;;;;;;14.27;8.45;;;;;;;10.06;57.18;101329.06;5049086;28;20032;-64
2022/01/19 08:50:19;;;;;;;12.88;7.75;;;;;;;8.93;58.91;101336.97;5050221;28;20091;-64
2022/01/19 08:52:45;;;;;;;17.58;8.77;;;;;;;7.30;64.69;101342.50;5050013;28;20029;-64
2022/01/19 08:55:11;;;;;;;14.40;8.57;;;;;;;6.52;69.56;101353.69;5048727;28;20534;-64
2022/01/19 08:57:37;;;;;;;16.33;8.82;;;;;;;6.05;74.45;101351.66;5046697;28;20029;-64
2022/01/19 09:00:10;;;;;;;15.00;8.45;;;;;;;5.72;79.85;101348.72;5049573;28;20480;-64
2022/01/19 09:02:35;;;;;;;15.52;9.23;;;;;;;7.10;83.24;101357.44;5050010;28;20479;-64
2022/01/19 09:05:03;;;;;;;15.70;9.55;;;;;;;9.23;73.86;101347.44;5047760;28;20064;-64
2022/01/19 09:07:29;;;;;;;14.90;9.68;;;;;;;10.47;61.04;101342.84;5046348;28;20090;-64
2022/01/19 09:09:54;;;;;;;15.75;8.60;;;;;;;10.69;60.18;101339.94;5029294;28;20523;-64
2022/01/19 09:12:20;;;;;;;14.30;7.82;;;;;;;11.76;55.86;101336.66;5031097;28;20396;-64
2022/01/19 09:14:45;;;;;;;13.63;8.18;;;;;;;12.63;52.86;101343.06;5028816;28;20400;-64
2022/01/19 09:17:11;;;;;;;16.20;8.85;;;;;;;13.26;49.87;101345.31;5028886;28;20156;-64
2022/01/19 09:19:39;;;;;;;17.70;8.90;;;;;;;13.54;48.73;101352.63;5047715;28;20031;-64
2022/01/19 09:22:09;;;;;;;16.60;8.88;;;;;;;13.40;48.77;101338.72;5045844;28;20124;-64
2022/01/19 09:24:39;;;;;;;16.35;8.30;;;;;;;13.38;48.67;101339.69;5049465;28;20539;-64
2022/01/19 09:27:08;;;;;;;17.17;10.00;;;;;;;13.66;46.91;101340.78;5049615;28;20108;-64
2022/01/19 09:29:34;;;;;;;15.02;8.70;;;;;;;13.27;47.93;101331.91;5049052;28;20064;-64
2022/01/19 09:32:01;;;;;;;17.90;10.82;;;;;;;13.34;47.62;101333.53;5046362;28;20021;-64
2022/01/19 09:34:27;;;;;;;20.60;10.20;;;;;;;13.17;48.24;101325.91;5029354;28;20057;-64
2022/01/19 09:36:53;;;;;;;16.88;9.70;;;;;;;13.77;48.22;101322.69;5029916;28;20416;-64
2022/01/19 09:39:22;;;;;;;16.40;9.60;;;;;;;13.77;47.38;101322.69;5028068;28;20109;-64
2022/01/19 09:41:48;;;;;;;15.90;9.18;;;;;;;14.06;45.72;101313.00;5028131;28;20029;-64
2022/01/19 09:44:19;;;;;;;18.10;10.07;;;;;;;12.96;46.78;101312.09;5029405;28;20029;-64
2022/01/19 09:46:45;;;;;;;16.80;9.27;;;;;;;12.96;48.21;101304.94;5038317;28;20043;-64
2022/01/19 09:49:12;;;;;;;16.25;8.80;;;;;;;12.73;47.88;101307.25;5049014;28;20087;-64
2022/01/19 09:51:43;;;;;;;17.65;10.32;;;;;;;13.00;48.82;101314.66;5035049;28;20051;-64
2022/01/19 09:54:12;;;;;;;15.43;11.00;;;;;;;13.48;48.34;101301.13;5029138;28;20140;-64
2022/01/19 09:56:38;;;;;;;16.05;10.27;;;;;;;14.45;46.58;101305.72;5029793;28;20028;-64
2022/01/19 09:59:03;;;;;;;14.90;9.30;;;;;;;14.90;44.88;101299.06;5040807;28;20388;-64
2022/01/19 10:01:29;;;;;;;17.95;9.48;;;;;;;15.12;44.76;101308.19;5034065;28;20082;-64
2022/01/19 10:03:54;;;;;;;13.15;8.23;;;;;;;14.94;44.27;101308.72;5031152;28;20028;-64
2022/01/19 10:06:23;;;;;;;17.92;9.88;;;;;;;14.45;45.54;101308.41;5030351;28;20029;-64
2022/01/19 10:08:54;;;;;;;17.50;9.98;;;;;;;13.96;46.44;101297.22;5032462;28;20036;-64
2022/01/19 10:17:02;;;;;;;15.88;8.55;;;;;;;14.29;45.41;101286.53;5033275;28;20418;-64
2022/01/19 10:19:30;;;;;;;15.35;9.27;;;;;;;14.70;44.59;101285.38;5032241;28;20057;-64
2022/01/19 10:22:08;;;;;;;13.60;8.60;;;;;;;14.44;45.52;101279.88;5033023;28;20056;-64
2022/01/19 10:24:52;;;;;;;13.07;8.13;;;;;;;13.98;46.59;101268.66;5032888;28;20037;-64
2022/01/19 10:27:34;;;;;;;14.52;9.10;;;;;;;13.17;47.58;101256.44;5033047;28;20130;-64
2022/01/19 10:30:03;;;;;;;18.92;9.00;;;;;;;12.86;49.20;101263.34;5051851;28;20534;-64
2022/01/19 10:32:33;;;;;;;14.63;8.43;;;;;;;12.59;49.55;101266.59;5050636;28;20021;-64
2022/01/19 10:35:21;;;;;;;16.60;9.63;;;;;;;12.58;49.02;101258.63;5052803;28;20036;-64
2022/01/19 10:38:09;;;;;;;17.90;8.98;;;;;;;11.81;51.07;101244.16;5052326;28;20021;-64
2022/01/19 10:40:37;;;;;;;16.00;8.15;;;;;;;11.40;52.72;101246.63;5051862;28;20063;-67
2022/01/19 10:43:24;;;;;;;17.67;8.88;;;;;;;11.39;53.32;101242.19;5053033;28;20187;-65
2022/01/19 10:45:50;;;;;;;15.95;8.95;;;;;;;11.20;53.86;101222.09;5052645;28;20056;-65
2022/01/19 10:48:34;;;;;;;17.70;9.90;;;;;;;11.08;53.34;101227.59;5052627;28;20060;-64
2022/01/19 10:51:07;;;;;;;14.90;9.70;;;;;;;10.59;55.17;101233.63;5051677;28;20025;-64
2022/01/19 10:53:32;;;;;;;17.05;7.90;;;;;;;9.70;57.04;101227.56;5051707;28;20102;-64
2022/01/19 10:55:58;;;;;;;13.38;8.57;;;;;;;9.50;59.02;101219.78;5052190;28;20448;-64
2022/01/19 10:58:23;;;;;;;16.25;8.63;;;;;;;9.56;59.03;101226.78;5052387;28;20361;-64
2022/01/19 11:00:51;;;;;;;16.33;8.02;;;;;;;10.07;58.57;101236.91;5050800;28;20036;-64
2022/01/19 11:03:25;;;;;;;13.73;8.30;;;;;;;10.25;57.37;101229.63;5034623;28;20493;-64
2022/01/19 11:05:56;;;;;;;18.10;9.07;;;;;;;10.22;57.10;101237.66;5050903;28;20408;-64
2022/01/19 11:08:24;;;;;;;15.57;8.95;;;;;;;9.92;58.83;101219.34;5052079;28;20388;-64
2022/01/19 11:10:53;;;;;;;17.20;9.90;;;;;;;9.48;60.24;101221.56;5049439;28;20112;-64
2022/01/19 11:13:39;;;;;;;17.30;9.52;;;;;;;9.75;60.85;101223.09;5033082;28;20128;-64
2022/01/19 11:16:06;;;;;;;19.50;9.38;;;;;;;10.04;60.45;101219.22;5029503;28;20057;-64
2022/01/19 11:18:35;;;;;;;18.42;8.85;;;;;;;10.97;58.54;101206.44;5042787;28;20025;-65
2022/01/19 11:21:04;;;;;;;21.92;8.65;;;;;;;10.90;55.82;101209.25;5047806;28;20029;-65
2022/01/19 11:23:48;;;;;;;19.90;9.40;;;;;;;11.48;55.06;101210.94;5051547;28;20017;-65
2022/01/19 11:26:21;;;;;;;17.15;9.15;;;;;;;11.12;53.91;101208.03;5051860;28;20097;-67
2022/01/19 11:28:49;;;;;;;17.20;9.38;;;;;;;11.25;57.55;101196.25;5051396;28;20036;-65
2022/01/19 11:31:20;;;;;;;20.60;9.38;;;;;;;11.52;53.91;101190.44;5051790;28;20391;-65
2022/01/19 11:33:52;;;;;;;16.00;9.20;;;;;;;11.66;55.68;101194.66;5033640;28;20087;-65
2022/01/19 11:36:31;;;;;;;16.38;9.10;;;;;;;11.81;53.95;101188.19;5030861;28;20075;-65
2022/01/19 11:39:06;;;;;;;20.38;9.48;;;;;;;11.49;53.43;101179.84;5030620;28;20029;-65
2022/01/19 11:41:47;;;;;;;14.43;9.40;;;;;;;11.50;54.57;101181.59;5031768;28;20485;-65
2022/01/19 11:44:27;;;;;;;18.45;9.55;;;;;;;11.01;54.52;101178.88;5033471;28;20481;-65
2022/01/19 11:46:54;;;;;;;20.10;10.13;;;;;;;11.65;55.07;101179.56;5031356;28;20044;-65
2022/01/19 11:49:48;;;;;;;17.48;10.85;;;;;;;11.98;54.34;101170.06;5030875;28;20436;-65
2022/01/19 11:52:19;;;;;;;16.88;10.20;;;;;;;12.72;53.16;101163.09;5048866;28;20045;-65
2022/01/19 11:54:45;;;;;;;16.95;9.55;;;;;;;12.92;49.88;101159.06;5050853;28;20028;-65
2022/01/19 11:57:12;;;;;;;17.83;8.80;;;;;;;12.31;52.64;101163.13;5051467;28;20043;-65
2022/01/19 11:59:38;;;;;;;19.30;9.75;;;;;;;11.87;52.95;101156.94;5050568;28;20039;-65
2022/01/19 12:02:23;;;;;;;19.30;8.10;;;;;;;10.58;56.06;101148.50;5046707;28;20472;-65
2022/01/19 12:04:52;;;;;;;17.02;9.50;;;;;;;10.26;59.07;101146.28;5050791;28;20480;-65
2022/01/19 12:07:37;;;;;;;17.35;9.15;;;;;;;9.79;59.19;101132.69;5050614;28;20025;-65
2022/01/19 12:10:30;;;;;;;17.98;9.40;;;;;;;9.25;62.24;101127.97;5050849;28;20082;-65
2022/01/19 12:16:14;;;;;;;20.40;10.32;;;;;;;8.40;67.77;101125.09;5049671;28;20067;-65
2022/01/19 12:18:51;;;;;;;18.40;10.07;;;;;;;8.15;69.41;101126.09;5050613;28;20033;-65
2022/01/19 12:21:29;;;;;;;21.25;9.75;;;;;;;7.86;71.30;101125.34;5038424;28;20103;-65
2022/01/19 12:23:54;;;;;;;18.20;9.68;;;;;;;7.76;73.25;101120.97;5030604;28;20017;-64
2022/01/19 12:26:21;;;;;;;24.17;11.55;;;;;;;7.56;74.29;101118.38;5029971;28;20502;-64
2022/01/19 12:28:52;;;;;;;22.67;11.18;;;;;;;7.30;76.07;101111.38;5039212;28;20029;-64
2022/01/19 12:31:24;;;;;;;25.27;11.52;;;;;;;7.13;77.97;101098.22;5050534;28;20047;-64
2022/01/19 12:34:05;;;;;;;21.65;11.88;;;;;;;7.23;77.91;101092.00;5031949;28;20053;-64